Time;durP1;ratioP1;P1;durP2;ratioP2;P2;SDS_P1;SDS_P2;PMS_P1;PMS_P2;Temp;Humidity;BMP_temperature;BMP_pressure;BME280_temperature;BME280_humidity;BME280_pressure;Samples;Min_cycle;Max_cycle;Signal;HPM_P1;HPM_P2
2021/10/07 00:00:33;;;;;;;3.83;1.90;;;;;;;19.51;70.83;101587.81;5029119;28;20045;-62
2021/10/07 00:02:59;;;;;;;3.20;1.88;;;;;;;19.52;70.79;101584.16;5010871;28;20064;-63
2021/10/07 00:05:24;;;;;;;2.65;1.50;;;;;;;19.52;70.62;101584.16;4975946;28;20050;-63
2021/10/07 00:07:50;;;;;;;2.53;1.52;;;;;;;19.51;70.71;101582.50;5009798;28;20740;-62
2021/10/07 00:10:15;;;;;;;3.10;1.73;;;;;;;19.52;70.86;101583.31;5009319;28;20072;-62
2021/10/07 00:12:41;;;;;;;3.95;1.83;;;;;;;19.51;70.79;101577.16;5009425;28;20145;-62
2021/10/07 00:15:08;;;;;;;3.08;1.70;;;;;;;19.53;70.79;101579.66;5025045;28;20037;-62
2021/10/07 00:17:33;;;;;;;3.13;1.70;;;;;;;19.52;70.52;101572.69;5011039;28;20556;-62
2021/10/07 00:19:59;;;;;;;3.92;1.65;;;;;;;19.52;70.72;101578.81;5011376;28;20029;-62
2021/10/07 00:22:24;;;;;;;2.72;1.83;;;;;;;19.51;70.81;101571.84;5029290;28;20188;-62
2021/10/07 00:24:50;;;;;;;3.92;1.77;;;;;;;19.51;70.63;101571.03;5029246;28;20467;-62
2021/10/07 00:27:15;;;;;;;3.75;1.90;;;;;;;19.50;70.57;101575.50;5001423;28;20041;-62
2021/10/07 00:29:45;;;;;;;3.22;1.88;;;;;;;19.51;70.79;101579.84;5028349;28;20041;-62
2021/10/07 00:32:33;;;;;;;3.55;1.70;;;;;;;19.51;70.92;101574.50;5028467;28;20402;-62
2021/10/07 00:37:29;;;;;;;3.33;1.85;;;;;;;19.51;70.53;101576.34;5010382;28;20093;-62
2021/10/07 00:39:55;;;;;;;3.20;1.77;;;;;;;19.51;70.41;101582.50;4984851;28;20061;-62
2021/10/07 00:42:21;;;;;;;2.80;1.90;;;;;;;19.51;70.58;101581.66;4995134;28;20444;-62
2021/10/07 00:44:48;;;;;;;3.42;2.00;;;;;;;19.52;70.74;101578.00;4994802;28;20491;-62
2021/10/07 00:47:15;;;;;;;3.50;1.80;;;;;;;19.51;70.43;101586.97;5012619;28;20034;-62
2021/10/07 00:49:41;;;;;;;2.90;1.60;;;;;;;19.51;70.71;101576.34;5020256;28;20079;-62
2021/10/07 00:52:12;;;;;;;3.47;1.83;;;;;;;19.50;70.58;101578.19;5031963;28;20051;-62
2021/10/07 00:54:38;;;;;;;2.92;1.65;;;;;;;19.50;70.66;101580.84;5015736;28;20034;-62
2021/10/07 00:57:06;;;;;;;3.92;1.77;;;;;;;19.50;70.75;101574.69;5032205;28;20441;-63
2021/10/07 00:59:36;;;;;;;3.55;2.55;;;;;;;19.50;70.56;101580.84;5032024;28;20057;-62
2021/10/07 01:02:08;;;;;;;2.80;1.90;;;;;;;19.49;70.60;101583.69;5021125;28;20546;-62
2021/10/07 01:04:34;;;;;;;3.42;2.13;;;;;;;19.49;70.45;101587.16;5012773;28;20086;-62
2021/10/07 01:07:01;;;;;;;4.65;2.00;;;;;;;19.50;70.79;101586.16;5022858;28;20061;-62
2021/10/07 01:09:29;;;;;;;3.10;1.80;;;;;;;19.50;70.17;101588.81;5014285;28;20136;-62
2021/10/07 01:11:55;;;;;;;4.10;1.80;;;;;;;19.49;70.29;101595.16;5032411;28;20038;-62
2021/10/07 01:14:35;;;;;;;4.18;2.15;;;;;;;19.45;70.72;101581.38;5013997;28;20042;-62
2021/10/07 01:17:01;;;;;;;3.67;1.80;;;;;;;19.49;70.50;101587.16;5013126;28;20042;-62
2021/10/07 01:19:29;;;;;;;3.80;2.35;;;;;;;19.49;70.48;101597.81;4994494;28;20065;-62
2021/10/07 01:21:57;;;;;;;2.67;1.92;;;;;;;19.49;70.39;101579.19;5012191;28;20091;-62
2021/10/07 01:24:23;;;;;;;3.00;1.75;;;;;;;19.50;70.48;101580.00;5021727;28;20033;-62
2021/10/07 01:26:49;;;;;;;5.05;1.80;;;;;;;19.49;70.51;101568.53;5031279;28;20037;-62
2021/10/07 01:29:14;;;;;;;3.55;1.85;;;;;;;19.48;70.55;101577.53;5011518;28;20376;-62
2021/10/07 01:31:40;;;;;;;3.08;1.95;;;;;;;19.48;70.49;101571.38;5011873;28;20173;-62
2021/10/07 01:34:05;;;;;;;2.55;1.65;;;;;;;19.48;70.74;101566.06;4994382;28;20063;-62
2021/10/07 01:36:30;;;;;;;3.65;1.90;;;;;;;19.47;70.70;101567.91;4994767;28;20066;-62
2021/10/07 01:38:56;;;;;;;3.90;1.98;;;;;;;19.48;70.48;101560.75;4997485;28;20095;-62
2021/10/07 01:41:21;;;;;;;3.70;2.05;;;;;;;19.48;70.69;101550.91;5014289;28;20108;-62
2021/10/07 01:43:47;;;;;;;3.42;1.98;;;;;;;19.47;70.59;101557.25;5030860;28;20060;-62
2021/10/07 01:46:12;;;;;;;3.55;1.65;;;;;;;19.48;70.59;101564.22;5013737;28;20485;-62
2021/10/07 01:48:38;;;;;;;3.45;1.80;;;;;;;19.49;70.67;101563.22;5031099;28;20478;-62
2021/10/07 01:51:03;;;;;;;4.55;2.13;;;;;;;19.49;70.62;101557.91;5028371;28;20042;-62
2021/10/07 01:53:29;;;;;;;2.97;1.88;;;;;;;19.49;70.72;101562.38;4976820;28;20462;-62
2021/10/07 01:55:54;;;;;;;3.25;1.83;;;;;;;19.49;70.71;101568.53;5011115;28;20037;-62
2021/10/07 01:58:20;;;;;;;3.22;1.88;;;;;;;19.49;70.75;101555.22;5011591;28;20048;-62
2021/10/07 02:00:46;;;;;;;3.42;1.92;;;;;;;19.50;70.65;101551.56;4987540;28;20057;-62
2021/10/07 02:03:11;;;;;;;2.60;1.70;;;;;;;19.51;70.34;101547.06;5012604;28;20104;-62
2021/10/07 02:05:37;;;;;;;3.10;1.88;;;;;;;19.50;70.31;101553.41;5030698;28;20541;-62
2021/10/07 02:08:02;;;;;;;3.47;1.90;;;;;;;19.49;70.38;101557.91;4996700;28;20458;-62
2021/10/07 02:10:28;;;;;;;4.22;1.88;;;;;;;19.50;70.66;101554.22;5013290;28;20089;-62
2021/10/07 02:12:54;;;;;;;2.47;1.80;;;;;;;19.50;70.63;101556.06;5013262;28;20044;-62
2021/10/07 02:15:19;;;;;;;2.67;1.75;;;;;;;19.50;70.55;101542.75;5028890;28;20029;-62
2021/10/07 02:17:45;;;;;;;2.60;1.85;;;;;;;19.50;70.42;101553.41;5012957;28;20049;-62
2021/10/07 02:20:11;;;;;;;3.25;1.92;;;;;;;19.51;70.28;101555.06;5030745;28;20509;-62
2021/10/07 02:22:37;;;;;;;3.10;2.00;;;;;;;19.50;70.48;101550.75;5031128;28;20041;-63
2021/10/07 02:25:04;;;;;;;2.67;1.67;;;;;;;19.50;70.65;101548.06;5014990;28;20049;-62
2021/10/07 02:27:29;;;;;;;2.20;1.67;;;;;;;19.50;70.37;101551.56;5031425;28;20049;-62
2021/10/07 02:29:55;;;;;;;3.08;1.85;;;;;;;19.51;70.32;101549.72;5030948;28;20167;-62
2021/10/07 02:32:20;;;;;;;2.63;1.60;;;;;;;19.50;70.41;101550.75;5030334;28;20033;-62
2021/10/07 02:34:46;;;;;;;2.78;1.67;;;;;;;19.49;70.57;101552.56;4996760;28;20513;-62
2021/10/07 02:37:12;;;;;;;3.47;1.83;;;;;;;19.49;70.59;101541.09;5024862;28;20057;-62
2021/10/07 02:39:38;;;;;;;3.38;1.88;;;;;;;19.51;70.69;101549.72;4993139;28;20038;-62
2021/10/07 02:42:04;;;;;;;3.20;1.80;;;;;;;19.49;70.54;101547.25;5010801;28;20522;-62
2021/10/07 02:44:30;;;;;;;2.97;1.95;;;;;;;19.49;70.73;101541.94;4992607;28;20066;-62
2021/10/07 02:46:55;;;;;;;2.33;1.70;;;;;;;19.49;70.36;101551.75;5013792;28;20072;-62
2021/10/07 02:49:21;;;;;;;2.90;1.70;;;;;;;19.48;70.67;101540.28;5030350;28;20037;-62
2021/10/07 02:51:46;;;;;;;2.53;1.77;;;;;;;19.50;70.42;101542.75;5030499;28;20033;-62
2021/10/07 02:54:12;;;;;;;3.05;2.00;;;;;;;19.48;70.48;101540.28;5029971;28;20080;-62
2021/10/07 02:56:38;;;;;;;2.97;1.60;;;;;;;19.50;70.46;101545.41;5030343;28;20045;-62
2021/10/07 02:59:03;;;;;;;2.85;1.67;;;;;;;19.49;70.71;101546.44;5025137;28;20038;-62
2021/10/07 03:01:28;;;;;;;2.67;1.70;;;;;;;19.49;70.31;101552.56;4993012;28;20471;-62
2021/10/07 03:03:54;;;;;;;2.92;2.00;;;;;;;19.50;70.18;101550.75;5005126;28;20059;-62
2021/10/07 03:06:19;;;;;;;2.88;1.92;;;;;;;19.49;70.46;101547.25;5029999;28;20152;-62
2021/10/07 03:08:45;;;;;;;2.40;1.40;;;;;;;19.48;70.60;101553.59;5029982;28;20128;-62
2021/10/07 03:11:10;;;;;;;1.83;1.42;;;;;;;19.48;70.10;101556.25;5011935;28;20459;-62
2021/10/07 03:13:36;;;;;;;2.33;1.60;;;;;;;19.49;70.39;101552.56;5020092;28;20042;-62
2021/10/07 03:16:01;;;;;;;2.72;1.70;;;;;;;19.48;70.22;101542.94;5010018;28;20503;-62
2021/10/07 03:18:27;;;;;;;2.97;1.80;;;;;;;19.49;70.14;101546.44;4992296;28;20840;-62
2021/10/07 03:20:52;;;;;;;3.95;2.22;;;;;;;19.48;70.23;101550.91;4976515;28;20104;-62
2021/10/07 03:23:18;;;;;;;3.42;1.60;;;;;;;19.49;70.56;101551.75;5009731;28;20037;-63
2021/10/07 03:25:44;;;;;;;2.58;1.67;;;;;;;19.48;70.07;101545.59;5025422;28;20033;-62
2021/10/07 03:28:09;;;;;;;2.70;1.70;;;;;;;19.49;70.26;101549.09;5011750;28;20455;-63
2021/10/07 03:30:35;;;;;;;3.22;1.77;;;;;;;19.48;70.48;101545.59;5012078;28;20085;-62
2021/10/07 03:33:08;;;;;;;2.47;1.55;;;;;;;19.47;70.37;101540.47;5025444;28;20041;-62
2021/10/07 03:35:35;;;;;;;3.45;1.42;;;;;;;19.48;70.49;101545.59;5023597;28;20487;-62
2021/10/07 03:38:01;;;;;;;2.35;1.70;;;;;;;19.49;70.30;101543.75;5015828;28;20061;-62
2021/10/07 03:40:26;;;;;;;2.40;1.58;;;;;;;19.48;70.04;101542.94;5009742;28;20518;-62
2021/10/07 03:42:52;;;;;;;2.03;1.50;;;;;;;19.48;70.49;101539.44;4991661;28;20081;-62
2021/10/07 03:45:17;;;;;;;2.50;1.70;;;;;;;19.48;70.29;101539.44;5009274;28;20037;-62
2021/10/07 03:47:43;;;;;;;2.42;1.67;;;;;;;19.47;70.55;101532.47;5019470;28;20034;-62
2021/10/07 03:50:09;;;;;;;2.72;1.50;;;;;;;19.47;70.19;101538.63;5011315;28;20052;-62
2021/10/07 03:52:34;;;;;;;2.88;1.73;;;;;;;19.48;70.54;101539.44;5011756;28;20036;-63
2021/10/07 03:55:00;;;;;;;2.05;1.45;;;;;;;19.48;70.15;101542.13;5012009;28;20057;-62
2021/10/07 03:57:26;;;;;;;2.42;1.50;;;;;;;19.47;70.21;101537.78;5011259;28;20037;-62
2021/10/07 03:59:52;;;;;;;2.35;1.52;;;;;;;19.47;70.46;101543.13;5015615;28;20487;-62
2021/10/07 04:02:18;;;;;;;2.58;1.70;;;;;;;19.47;70.33;101546.59;4991354;28;20045;-62
2021/10/07 04:04:44;;;;;;;2.60;1.38;;;;;;;19.47;70.30;101549.25;5009473;28;20037;-62
2021/10/07 04:07:09;;;;;;;2.05;1.38;;;;;;;19.47;70.32;101543.94;4992053;28;20030;-62
2021/10/07 04:09:35;;;;;;;2.95;1.58;;;;;;;19.47;70.32;101543.13;5002141;28;20041;-62
2021/10/07 04:12:00;;;;;;;2.15;1.20;;;;;;;19.47;70.28;101554.59;5017302;28;20038;-62
2021/10/07 04:14:26;;;;;;;2.15;1.60;;;;;;;19.47;70.13;101559.09;4991087;28;20034;-62
2021/10/07 04:16:51;;;;;;;2.17;1.45;;;;;;;19.47;70.52;101553.75;5019681;28;20033;-62
2021/10/07 04:19:19;;;;;;;2.00;1.10;;;;;;;19.47;70.52;101567.91;5028917;28;20037;-62
2021/10/07 04:21:47;;;;;;;1.90;1.40;;;;;;;19.47;70.45;101570.56;5029215;28;20191;-62
2021/10/07 04:24:13;;;;;;;2.10;1.25;;;;;;;19.48;70.23;101566.06;5011631;28;20084;-62
2021/10/07 04:26:38;;;;;;;2.70;1.30;;;;;;;19.47;70.33;101567.91;5021039;28;20038;-62
2021/10/07 04:29:04;;;;;;;2.45;1.48;;;;;;;19.48;70.59;101560.75;4994243;28;20395;-62
2021/10/07 04:31:30;;;;;;;2.08;1.30;;;;;;;19.48;70.11;101561.56;5010600;28;20113;-62
2021/10/07 04:33:56;;;;;;;1.98;1.38;;;;;;;19.47;70.14;101554.59;5029166;28;20057;-62
2021/10/07 04:36:22;;;;;;;2.17;1.40;;;;;;;19.48;70.13;101561.56;5028815;28;20084;-63
2021/10/07 04:38:48;;;;;;;2.30;1.50;;;;;;;19.48;70.45;101550.09;5021630;28;20041;-62
2021/10/07 04:41:14;;;;;;;1.75;1.20;;;;;;;19.48;70.19;101555.41;4991625;28;20034;-63
2021/10/07 04:43:39;;;;;;;3.30;1.92;;;;;;;19.48;70.50;101556.25;5009009;28;20431;-62
2021/10/07 04:46:05;;;;;;;1.92;1.20;;;;;;;19.48;70.30;101558.91;5026195;28;20041;-60
2021/10/07 04:48:31;;;;;;;2.05;1.10;;;;;;;19.47;70.12;101562.56;5028447;28;20056;-60
2021/10/07 04:50:56;;;;;;;2.78;1.30;;;;;;;19.47;70.30;101559.91;5028810;28;20032;-60
2021/10/07 04:53:23;;;;;;;2.13;1.20;;;;;;;19.48;70.54;101560.75;5028696;28;20044;-60
2021/10/07 04:55:54;;;;;;;2.63;1.30;;;;;;;19.47;70.58;101557.25;4996275;28;20152;-60
2021/10/07 04:58:20;;;;;;;2.65;1.20;;;;;;;19.47;70.33;101559.91;5008471;28;20030;-60
2021/10/07 05:00:45;;;;;;;2.10;1.23;;;;;;;19.48;70.44;101563.41;5008727;28;20065;-60
2021/10/07 05:03:11;;;;;;;1.88;1.20;;;;;;;19.47;70.55;101569.72;4991342;28;20046;-60
2021/10/07 05:05:36;;;;;;;1.88;1.17;;;;;;;19.47;70.53;101575.06;5008605;28;20510;-60
2021/10/07 05:08:02;;;;;;;1.85;1.10;;;;;;;19.47;70.38;101570.56;5023726;28;20050;-60
2021/10/07 05:10:27;;;;;;;2.30;1.10;;;;;;;19.48;70.14;101566.88;5028485;28;20033;-60
2021/10/07 05:12:52;;;;;;;1.77;1.15;;;;;;;19.48;70.19;101571.38;5028515;28;20032;-60
2021/10/07 05:15:18;;;;;;;1.60;1.20;;;;;;;19.47;69.99;101562.56;5027951;28;20037;-60
2021/10/07 05:17:43;;;;;;;1.20;1.00;;;;;;;19.47;70.36;101570.56;5028679;28;20056;-60
2021/10/07 05:20:09;;;;;;;1.73;1.10;;;;;;;19.47;70.10;101565.22;4995906;28;20038;-60
2021/10/07 05:22:35;;;;;;;1.40;1.00;;;;;;;19.47;70.16;101564.41;5023675;28;20033;-60
2021/10/07 05:25:01;;;;;;;1.65;1.10;;;;;;;19.47;70.47;101564.41;5031793;28;20050;-60
2021/10/07 05:27:26;;;;;;;1.67;1.02;;;;;;;19.47;70.12;101565.22;5013957;28;20406;-60
2021/10/07 05:29:52;;;;;;;1.50;1.10;;;;;;;19.47;70.37;101570.56;5013656;28;20549;-60
2021/10/07 05:32:17;;;;;;;1.75;1.13;;;;;;;19.47;70.19;101581.19;4993324;28;20510;-61
2021/10/07 05:34:43;;;;;;;1.88;1.30;;;;;;;19.47;70.26;101578.53;4994432;28;20041;-60
2021/10/07 05:37:08;;;;;;;2.58;1.10;;;;;;;19.47;70.27;101575.06;5012137;28;20123;-61
2021/10/07 05:39:34;;;;;;;2.05;1.17;;;;;;;19.46;70.15;101590.19;5011707;28;20048;-59
2021/10/07 05:41:59;;;;;;;3.05;1.08;;;;;;;19.47;70.33;101593.69;4993690;28;20095;-59
2021/10/07 05:44:25;;;;;;;2.88;1.00;;;;;;;19.46;70.51;101592.84;4993860;28;20065;-59
2021/10/07 05:46:50;;;;;;;1.95;1.17;;;;;;;19.45;70.71;101600.00;5008388;28;20103;-62
2021/10/07 05:49:16;;;;;;;2.92;1.10;;;;;;;19.44;70.48;101586.88;4995701;28;20033;-61
2021/10/07 05:51:41;;;;;;;3.40;1.25;;;;;;;19.45;70.68;101596.50;5013128;28;20520;-60
2021/10/07 05:54:07;;;;;;;2.92;1.20;;;;;;;19.45;70.43;101589.34;5031746;28;20049;-60
2021/10/07 05:56:33;;;;;;;2.28;1.10;;;;;;;19.45;70.29;101591.19;5015560;28;20099;-60
2021/10/07 05:58:58;;;;;;;1.73;0.82;;;;;;;19.46;70.59;101590.19;5011219;28;20030;-61
2021/10/07 06:01:24;;;;;;;1.88;0.98;;;;;;;19.46;70.17;101592.84;4993604;28;20051;-60
2021/10/07 06:03:49;;;;;;;3.28;1.10;;;;;;;19.46;70.35;101590.19;5010918;28;20129;-60
2021/10/07 06:06:14;;;;;;;2.13;0.93;;;;;;;19.45;70.36;101588.53;4993644;28;20033;-60
2021/10/07 06:08:40;;;;;;;2.35;1.02;;;;;;;19.46;70.28;101590.19;5023282;28;20037;-60
2021/10/07 06:11:05;;;;;;;2.45;1.13;;;;;;;19.46;70.44;101590.19;5031356;28;20040;-60
2021/10/07 06:13:31;;;;;;;1.33;0.75;;;;;;;19.47;70.02;101589.19;5012170;28;20044;-60
2021/10/07 06:15:56;;;;;;;1.77;1.10;;;;;;;19.47;70.08;101591.00;5029960;28;20041;-60
2021/10/07 06:18:22;;;;;;;1.40;1.00;;;;;;;19.47;70.27;101591.84;5030157;28;20059;-61
2021/10/07 06:20:47;;;;;;;1.70;1.20;;;;;;;19.46;70.33;101582.19;4999972;28;20129;-60
2021/10/07 06:23:13;;;;;;;2.38;1.10;;;;;;;19.47;70.19;101578.53;5011155;28;20037;-60
2021/10/07 06:25:38;;;;;;;1.75;0.90;;;;;;;19.46;70.46;101579.53;5010336;28;20041;-60
2021/10/07 06:28:07;;;;;;;2.03;1.33;;;;;;;19.46;70.49;101568.91;5010209;28;20038;-60
2021/10/07 06:30:33;;;;;;;1.88;0.88;;;;;;;19.47;70.11;101589.19;4992277;28;20483;-61
2021/10/07 06:32:58;;;;;;;3.50;1.33;;;;;;;19.46;70.18;101579.53;5024905;28;20041;-61
2021/10/07 06:35:24;;;;;;;1.85;1.10;;;;;;;19.46;70.27;101590.19;5012210;28;20164;-61
2021/10/07 06:37:50;;;;;;;2.13;0.90;;;;;;;19.46;70.22;101592.84;5030347;28;20121;-61
2021/10/07 06:40:16;;;;;;;3.50;1.05;;;;;;;19.45;70.10;101588.53;5030311;28;20141;-60
2021/10/07 06:42:42;;;;;;;2.00;0.98;;;;;;;19.46;70.53;101587.53;5029992;28;20401;-60
2021/10/07 06:45:09;;;;;;;1.98;1.25;;;;;;;19.46;70.50;101592.84;5012690;28;20046;-61
2021/10/07 06:47:36;;;;;;;1.80;0.90;;;;;;;19.46;70.22;101592.84;5009723;28;20044;-61
2021/10/07 06:50:04;;;;;;;2.20;1.00;;;;;;;19.47;70.01;101596.34;5010101;28;20391;-61
2021/10/07 06:52:29;;;;;;;2.38;1.08;;;;;;;19.47;70.06;101591.84;5009932;28;20040;-61
2021/10/07 06:54:55;;;;;;;1.30;0.80;;;;;;;19.47;69.88;101601.66;4992755;28;20038;-61
2021/10/07 06:57:20;;;;;;;1.85;1.05;;;;;;;19.48;70.07;101582.84;5027766;28;20489;-61
2021/10/07 06:59:45;;;;;;;1.77;1.05;;;;;;;19.47;70.38;101583.84;5028702;28;20422;-61
2021/10/07 07:02:11;;;;;;;1.92;1.00;;;;;;;19.48;70.08;101574.88;4993928;28;20115;-61
2021/10/07 07:04:36;;;;;;;1.50;1.10;;;;;;;19.48;70.03;101571.38;4991736;28;20060;-61
2021/10/07 07:07:02;;;;;;;2.53;0.93;;;;;;;19.48;70.16;101576.69;5010079;28;20095;-60
2021/10/07 07:09:27;;;;;;;1.50;0.90;;;;;;;19.48;70.02;101572.22;4980651;28;20053;-61
2021/10/07 07:11:53;;;;;;;1.10;0.88;;;;;;;19.46;70.54;101571.56;5010479;28;20040;-60
2021/10/07 07:14:19;;;;;;;2.22;1.02;;;;;;;19.47;70.53;101556.41;5013091;28;20451;-60
2021/10/07 07:16:44;;;;;;;1.48;1.02;;;;;;;19.46;70.02;101563.56;5015141;28;20242;-60
2021/10/07 07:19:10;;;;;;;1.85;1.10;;;;;;;19.47;70.33;101559.09;5029840;28;20221;-60
2021/10/07 07:21:36;;;;;;;1.70;1.00;;;;;;;19.46;70.19;101568.91;5029758;28;20034;-60
2021/10/07 07:24:03;;;;;;;3.90;0.90;;;;;;;19.47;70.33;101567.06;5027584;28;20060;-60
2021/10/07 07:26:30;;;;;;;2.70;0.93;;;;;;;19.46;70.51;101571.56;4992058;28;20048;-60
2021/10/07 07:28:57;;;;;;;9.27;1.00;;;;;;;19.47;70.79;101561.75;4992261;28;20038;-60
2021/10/07 07:31:24;;;;;;;2.42;1.63;;;;;;;19.46;70.69;101574.22;5008787;28;20084;-60
2021/10/07 07:33:49;;;;;;;4.25;1.00;;;;;;;19.46;70.49;101574.22;5016768;28;20144;-61
2021/10/07 07:36:16;;;;;;;2.35;1.27;;;;;;;19.46;70.68;101579.53;5024832;28;20034;-60
2021/10/07 07:38:42;;;;;;;3.38;1.10;;;;;;;19.47;70.79;101570.56;5009525;28;20033;-60
2021/10/07 07:41:10;;;;;;;1.58;1.23;;;;;;;19.47;70.93;101575.88;5005285;28;20041;-60
2021/10/07 07:43:37;;;;;;;2.72;1.08;;;;;;;19.46;71.25;101568.91;5029314;28;20063;-60
2021/10/07 07:46:02;;;;;;;3.10;1.25;;;;;;;19.47;70.93;101575.88;5028650;28;20117;-60
2021/10/07 07:48:28;;;;;;;5.18;1.10;;;;;;;19.47;71.25;101567.91;5025929;28;20489;-61
2021/10/07 07:50:54;;;;;;;3.20;1.30;;;;;;;19.47;71.03;101581.19;5009759;28;20030;-60
2021/10/07 07:53:19;;;;;;;4.00;1.23;;;;;;;19.47;71.12;101577.72;5009210;28;20034;-60
2021/10/07 07:55:45;;;;;;;4.07;1.20;;;;;;;19.46;71.42;101579.53;5019285;28;20037;-60
2021/10/07 07:58:12;;;;;;;3.17;1.23;;;;;;;19.47;71.35;101585.69;5028653;28;20148;-60
2021/10/07 08:00:38;;;;;;;5.68;1.27;;;;;;;19.47;71.41;101577.72;5028593;28;20135;-60
2021/10/07 08:03:05;;;;;;;3.60;0.95;;;;;;;19.47;71.52;101583.84;5029294;28;20144;-60
2021/10/07 08:05:30;;;;;;;4.30;1.08;;;;;;;19.45;71.89;101591.19;5019879;28;20084;-60
2021/10/07 08:07:56;;;;;;;4.60;1.13;;;;;;;19.46;71.50;101592.84;5016122;28;20116;-60
2021/10/07 08:10:21;;;;;;;5.25;1.25;;;;;;;19.47;71.85;101596.34;5010779;28;20394;-60
2021/10/07 08:12:47;;;;;;;3.88;1.33;;;;;;;19.45;72.07;101592.03;5027589;28;20029;-60
2021/10/07 08:15:12;;;;;;;3.10;1.15;;;;;;;19.45;72.08;101593.84;5004034;28;20042;-60
2021/10/07 08:17:38;;;;;;;4.68;1.30;;;;;;;19.45;72.07;101600.00;5008373;28;20046;-61
2021/10/07 08:20:06;;;;;;;3.67;1.10;;;;;;;19.46;72.34;101600.84;5009006;28;20468;-59
2021/10/07 08:22:32;;;;;;;5.97;1.40;;;;;;;19.47;72.32;101604.31;4990607;28;20049;-60
2021/10/07 08:24:58;;;;;;;5.60;1.23;;;;;;;19.46;72.25;101611.47;5008476;28;20423;-60
2021/10/07 08:27:26;;;;;;;2.92;0.90;;;;;;;19.48;72.42;101621.94;5018872;28;20042;-60
2021/10/07 08:29:55;;;;;;;2.92;1.13;;;;;;;19.47;72.24;101609.66;5028833;28;20065;-60
2021/10/07 08:32:21;;;;;;;2.83;0.93;;;;;;;19.47;72.55;101618.44;5020072;28;20084;-60
2021/10/07 08:34:46;;;;;;;4.53;0.93;;;;;;;19.47;72.88;101613.13;5012615;28;20033;-60
2021/10/07 08:37:12;;;;;;;4.40;1.08;;;;;;;19.48;72.69;101614.78;5021494;28;20049;-60
2021/10/07 08:39:37;;;;;;;2.22;0.82;;;;;;;19.48;72.56;101620.09;4992010;28;20438;-60
2021/10/07 08:42:04;;;;;;;2.75;0.85;;;;;;;19.48;72.75;101621.94;5011402;28;20420;-59
2021/10/07 08:44:30;;;;;;;2.30;0.93;;;;;;;19.49;72.57;101619.09;5008661;28;20092;-60
2021/10/07 08:46:57;;;;;;;4.28;0.73;;;;;;;19.50;72.73;101622.59;5006968;28;20042;-60
2021/10/07 08:49:25;;;;;;;2.25;0.70;;;;;;;19.50;72.73;101612.78;5007294;28;20033;-60
2021/10/07 08:51:52;;;;;;;1.30;0.70;;;;;;;19.50;72.94;101614.59;5007332;28;20040;-59
2021/10/07 08:54:18;;;;;;;1.70;0.77;;;;;;;19.50;72.96;101612.78;5007630;28;20045;-61
2021/10/07 08:56:43;;;;;;;2.03;0.88;;;;;;;19.50;72.76;101607.44;5007614;28;20026;-60
2021/10/07 08:59:09;;;;;;;2.47;0.85;;;;;;;19.51;72.87;101610.94;5011846;28;20111;-60
2021/10/07 09:01:42;;;;;;;3.60;0.80;;;;;;;19.49;73.18;101603.13;5012438;28;20065;-60
2021/10/07 09:04:28;;;;;;;3.72;1.00;;;;;;;19.49;73.32;101602.31;5012992;28;20044;-60
2021/10/07 09:07:04;;;;;;;2.03;0.90;;;;;;;19.50;73.05;101606.63;4995001;28;20088;-60
2021/10/07 09:09:32;;;;;;;3.17;0.70;;;;;;;19.53;73.08;101603.59;5012703;28;20362;-60
2021/10/07 09:12:04;;;;;;;1.45;0.68;;;;;;;19.52;73.41;101605.44;5012964;28;20118;-60
2021/10/07 09:14:32;;;;;;;1.10;0.60;;;;;;;19.53;73.42;101609.75;5012675;28;20116;-60
2021/10/07 09:17:00;;;;;;;1.42;0.68;;;;;;;19.54;73.57;101608.78;5012374;28;20482;-60
2021/10/07 09:19:33;;;;;;;2.50;1.15;;;;;;;19.53;73.66;101609.75;5012636;28;20062;-60
2021/10/07 09:22:12;;;;;;;1.20;0.52;;;;;;;19.56;73.58;101608.59;5012211;28;20459;-60
2021/10/07 09:24:41;;;;;;;1.90;0.63;;;;;;;19.55;73.27;101610.44;5012322;28;20029;-60
2021/10/07 09:27:16;;;;;;;1.30;0.68;;;;;;;19.56;73.33;101612.09;5012591;28;20034;-60
2021/10/07 09:29:43;;;;;;;1.45;0.60;;;;;;;19.56;73.49;101621.91;5011778;28;20406;-61
2021/10/07 09:32:10;;;;;;;1.00;0.63;;;;;;;19.57;73.76;101613.78;5012140;28;20040;-60
2021/10/07 09:34:48;;;;;;;3.25;0.77;;;;;;;19.55;73.61;101622.91;5012111;28;20036;-60
2021/10/07 09:37:23;;;;;;;1.23;0.70;;;;;;;19.57;73.51;101627.06;5012343;28;20022;-60
2021/10/07 09:39:58;;;;;;;1.42;0.63;;;;;;;19.58;73.36;101625.25;5012002;28;20034;-62
2021/10/07 09:42:30;;;;;;;2.53;0.85;;;;;;;19.59;73.50;101622.41;5012712;28;20037;-61
2021/10/07 09:45:00;;;;;;;2.38;0.70;;;;;;;19.61;73.47;101631.03;5011775;28;20084;-60
2021/10/07 09:47:34;;;;;;;1.42;0.65;;;;;;;19.62;73.60;101630.03;5011776;28;20142;-61
2021/10/07 09:50:26;;;;;;;0.63;0.50;;;;;;;19.59;73.94;101625.06;5012037;28;20479;-61
2021/10/07 09:53:03;;;;;;;1.80;0.60;;;;;;;19.63;73.50;101634.34;5011804;28;20030;-61
2021/10/07 09:55:35;;;;;;;1.48;0.80;;;;;;;19.65;74.02;101634.16;5012196;28;20034;-61
2021/10/07 09:58:11;;;;;;;1.85;0.65;;;;;;;19.64;73.79;101643.16;4994006;28;20457;-61
2021/10/07 10:00:39;;;;;;;1.23;0.80;;;;;;;19.66;73.86;101638.47;4993502;28;20053;-60
2021/10/07 10:03:07;;;;;;;1.35;0.82;;;;;;;19.67;73.56;101648.13;5011815;28;20037;-61
2021/10/07 10:05:34;;;;;;;0.60;0.60;;;;;;;19.66;73.97;101652.63;5011463;28;20344;-60
2021/10/07 10:08:02;;;;;;;1.13;0.70;;;;;;;19.66;73.61;101651.78;4994323;28;20129;-60
2021/10/07 10:10:27;;;;;;;1.70;0.85;;;;;;;19.65;73.74;101652.78;5011061;28;20080;-60
2021/10/07 10:12:53;;;;;;;2.50;0.80;;;;;;;19.64;73.61;101651.13;5011226;28;20042;-60
2021/10/07 10:15:20;;;;;;;2.80;0.80;;;;;;;19.63;73.86;101668.94;5011220;28;20038;-60
2021/10/07 10:17:46;;;;;;;1.55;0.77;;;;;;;19.63;73.70;101673.44;5011708;28;20115;-59
2021/10/07 10:20:26;;;;;;;1.70;0.82;;;;;;;19.59;74.04;101662.31;5011319;28;20038;-60
2021/10/07 10:23:00;;;;;;;0.63;0.60;;;;;;;19.58;73.93;101673.97;5011773;28;20056;-59
2021/10/07 10:25:29;;;;;;;2.13;0.98;;;;;;;19.59;73.79;101672.97;5011184;28;20061;-60
2021/10/07 10:28:02;;;;;;;4.35;0.88;;;;;;;19.58;73.64;101673.97;5010630;28;20834;-59
2021/10/07 10:30:46;;;;;;;2.78;1.05;;;;;;;19.58;74.09;101684.63;5011359;28;20092;-60
2021/10/07 10:33:30;;;;;;;1.00;0.73;;;;;;;19.53;74.18;101676.28;5011220;28;20053;-60
2021/10/07 10:35:56;;;;;;;1.08;0.70;;;;;;;19.56;74.36;101680.44;4993699;28;20530;-60
2021/10/07 10:38:21;;;;;;;1.48;0.80;;;;;;;19.57;73.79;101682.13;5010924;28;20034;-60
2021/10/07 10:40:47;;;;;;;1.08;0.70;;;;;;;19.57;73.92;101695.44;5011333;28;20120;-59
2021/10/07 10:43:18;;;;;;;1.30;0.80;;;;;;;19.55;73.88;101698.25;4993113;28;20038;-60
2021/10/07 10:45:51;;;;;;;2.38;0.80;;;;;;;19.56;74.00;101707.91;5010376;28;20038;-59
2021/10/07 10:48:41;;;;;;;1.95;0.70;;;;;;;19.53;73.83;101697.56;5011029;28;20115;-60
2021/10/07 10:51:13;;;;;;;1.30;0.73;;;;;;;19.57;74.03;101687.47;5011172;28;20113;-60
2021/10/07 10:54:00;;;;;;;1.92;0.93;;;;;;;19.54;73.86;101703.72;5010581;28;20025;-61
2021/10/07 10:56:31;;;;;;;2.95;0.90;;;;;;;19.58;74.12;101699.75;5010784;28;20084;-60
2021/10/07 10:59:30;;;;;;;1.45;0.68;;;;;;;19.52;74.41;101719.03;5010042;28;20033;-60
2021/10/07 11:02:24;;;;;;;1.83;0.80;;;;;;;19.52;74.08;101698.56;4966610;28;20057;-60
2021/10/07 11:04:51;;;;;;;;;;;;;;;19.48;74.11;101696.44;5008106;28;20379;-60
2021/10/07 11:07:33;;;;;;;2.17;0.70;;;;;;;19.56;73.80;101699.09;5010614;28;19960;-59
2021/10/07 11:10:28;;;;;;;2.28;0.70;;;;;;;19.52;74.23;101698.56;5010296;28;20037;-61
2021/10/07 11:12:56;;;;;;;3.53;0.98;;;;;;;19.57;74.04;101709.59;5010066;28;20038;-60
2021/10/07 11:15:24;;;;;;;2.40;0.70;;;;;;;19.57;74.18;101709.59;5010195;28;20048;-59
2021/10/07 11:17:52;;;;;;;1.92;0.93;;;;;;;19.56;74.02;101717.72;5010173;28;20033;-59
2021/10/07 11:20:25;;;;;;;0.75;0.50;;;;;;;19.54;74.28;101719.69;5009766;28;20034;-59
2021/10/07 11:22:58;;;;;;;2.38;0.70;;;;;;;19.54;74.16;101725.00;4992442;28;20087;-59
2021/10/07 11:25:23;;;;;;;0.70;0.45;;;;;;;19.55;74.04;101732.03;5010077;28;20044;-59
2021/10/07 11:27:49;;;;;;;0.82;0.50;;;;;;;19.54;74.55;101715.22;5010037;28;20026;-59